createdAt,value
2018-06-30T00:01:41.937Z,90.10
2018-06-30T00:04:09.425Z,90.20
2018-06-30T00:06:36.388Z,90.00
2018-06-30T00:09:05.935Z,89.70
2018-06-30T00:11:33.348Z,89.50
2018-06-30T00:14:01.006Z,89.50
2018-06-30T00:16:27.945Z,89.10
2018-06-30T00:18:54.867Z,89.70
2018-06-30T00:21:21.827Z,90.00
2018-06-30T00:23:48.772Z,90.10
2018-06-30T00:26:15.718Z,90.20
2018-06-30T00:28:43.219Z,90.20
2018-06-30T00:31:10.255Z,90.20
2018-06-30T00:33:37.204Z,90.00
2018-06-30T00:40:57.979Z,90.20
2018-06-30T00:43:24.938Z,90.00
2018-06-30T00:45:51.928Z,90.10
2018-06-30T00:48:18.903Z,90.10
2018-06-30T00:50:45.919Z,90.10
2018-06-30T00:53:13.691Z,90.00
2018-06-30T00:55:40.732Z,89.90
2018-06-30T01:00:35.751Z,90.10
2018-06-30T01:03:02.733Z,90.10
2018-06-30T01:05:29.687Z,90.20
2018-06-30T01:07:57.305Z,90.10
2018-06-30T01:10:24.228Z,89.70
2018-06-30T01:12:51.172Z,89.30
2018-06-30T01:15:18.094Z,89.40
2018-06-30T01:17:45.017Z,89.90
2018-06-30T01:20:11.952Z,90.00
2018-06-30T01:22:38.936Z,90.00
2018-06-30T01:25:05.863Z,89.70
2018-06-30T01:27:32.814Z,88.80
2018-06-30T01:29:59.743Z,89.30
2018-06-30T01:32:26.701Z,89.40
2018-06-30T01:34:53.860Z,89.80
2018-06-30T01:37:20.824Z,89.40
2018-06-30T01:39:48.385Z,88.90
2018-06-30T01:42:15.323Z,89.30
2018-06-30T01:44:42.275Z,89.20
2018-06-30T01:47:09.208Z,88.90
2018-06-30T01:49:36.246Z,88.60
2018-06-30T01:52:03.165Z,88.70
2018-06-30T01:54:30.132Z,88.30
2018-06-30T01:56:57.093Z,88.30
2018-06-30T01:59:24.430Z,88.20
2018-06-30T02:01:51.369Z,88.60
2018-06-30T02:04:19.025Z,88.70
2018-06-30T02:06:46.505Z,89.30
2018-06-30T02:09:13.464Z,89.80
2018-06-30T02:11:40.408Z,89.20
2018-06-30T02:14:08.090Z,89.60
2018-06-30T02:16:35.016Z,89.20
2018-06-30T02:19:02.876Z,89.10
2018-06-30T02:21:29.882Z,88.90
2018-06-30T02:23:56.784Z,89.30
2018-06-30T02:28:50.586Z,89.40
2018-06-30T02:31:17.504Z,89.60
2018-06-30T02:33:44.400Z,90.10
2018-06-30T02:36:11.358Z,89.70
2018-06-30T02:38:38.364Z,90.10
2018-06-30T02:41:05.593Z,90.00
2018-06-30T02:43:33.889Z,90.20
2018-06-30T02:46:01.471Z,90.00
2018-06-30T02:48:28.375Z,89.50
2018-06-30T02:50:55.375Z,89.10
2018-06-30T02:53:22.312Z,89.70
2018-06-30T02:55:49.896Z,89.90
2018-06-30T02:58:16.915Z,89.20
2018-06-30T03:00:43.880Z,89.40
2018-06-30T03:03:10.898Z,89.70
2018-06-30T03:05:37.860Z,89.20
2018-06-30T03:08:04.804Z,89.30
2018-06-30T03:10:32.483Z,90.00
2018-06-30T03:12:59.448Z,89.60
2018-06-30T03:15:26.409Z,89.30
2018-06-30T03:17:53.325Z,90.10
2018-06-30T03:20:20.300Z,90.10
2018-06-30T03:22:47.247Z,90.40
2018-06-30T03:25:14.735Z,90.30
2018-06-30T03:27:42.183Z,90.20
2018-06-30T03:30:09.753Z,90.40
2018-06-30T03:32:36.671Z,90.30
2018-06-30T03:35:03.612Z,90.30
2018-06-30T03:37:30.545Z,90.20
2018-06-30T03:42:25.315Z,90.10
2018-06-30T03:44:52.255Z,90.00
2018-06-30T03:47:19.205Z,90.00
2018-06-30T03:49:46.136Z,90.30
2018-06-30T03:52:13.097Z,90.10
2018-06-30T03:54:40.037Z,90.20
2018-06-30T03:57:06.952Z,90.40
2018-06-30T03:59:33.998Z,90.30
2018-06-30T04:02:00.976Z,90.00
2018-06-30T04:04:27.891Z,89.60
2018-06-30T04:06:54.868Z,89.10
2018-06-30T04:09:21.816Z,88.30
2018-06-30T04:11:49.075Z,87.60
2018-06-30T04:14:15.995Z,88.00
2018-06-30T04:16:42.956Z,88.30
2018-06-30T04:19:12.316Z,87.10
2018-06-30T04:21:39.625Z,86.80
2018-06-30T04:24:06.612Z,85.00
2018-06-30T04:26:33.644Z,83.30
2018-06-30T04:29:00.823Z,81.90
2018-06-30T04:31:27.808Z,82.60
2018-06-30T04:33:54.748Z,81.80
2018-06-30T04:36:21.788Z,81.10
2018-06-30T04:38:48.731Z,79.80
2018-06-30T04:41:15.697Z,78.70
2018-06-30T04:43:42.667Z,77.90
2018-06-30T04:46:09.683Z,76.30
2018-06-30T04:48:36.874Z,77.00
2018-06-30T04:51:03.888Z,76.00
2018-06-30T04:53:30.816Z,76.20
2018-06-30T04:55:57.760Z,73.70
2018-06-30T04:58:24.653Z,72.60
2018-06-30T05:00:52.102Z,71.70
2018-06-30T05:03:19.104Z,69.70
2018-06-30T05:05:46.175Z,69.20
2018-06-30T05:08:13.084Z,67.30
2018-06-30T05:10:40.028Z,67.20
2018-06-30T05:13:07.938Z,66.30
2018-06-30T05:15:34.887Z,66.30
2018-06-30T05:18:01.889Z,65.80
2018-06-30T05:20:28.817Z,64.20
2018-06-30T05:22:56.259Z,64.10
2018-06-30T05:25:23.239Z,63.30
2018-06-30T05:27:50.182Z,63.70
2018-06-30T05:30:17.128Z,64.30
2018-06-30T05:32:44.095Z,60.60
2018-06-30T05:35:11.061Z,63.00
2018-06-30T05:37:38.033Z,62.60
2018-06-30T05:40:04.976Z,60.70
2018-06-30T05:42:32.081Z,60.80
2018-06-30T05:44:59.436Z,60.60
2018-06-30T05:47:26.421Z,59.60
2018-06-30T05:49:53.372Z,59.30
2018-06-30T05:52:20.681Z,59.20
2018-06-30T05:54:47.701Z,59.20
2018-06-30T05:57:14.631Z,60.70
2018-06-30T05:59:41.559Z,59.80
2018-06-30T06:02:08.603Z,61.90
2018-06-30T06:04:35.551Z,63.40
2018-06-30T06:07:02.555Z,62.20
2018-06-30T06:09:29.918Z,61.40
2018-06-30T06:11:56.880Z,60.50
2018-06-30T06:14:24.391Z,60.20
2018-06-30T06:16:51.332Z,59.00
2018-06-30T06:19:18.892Z,58.20
2018-06-30T06:21:46.248Z,59.50
2018-06-30T06:24:13.724Z,60.60
2018-06-30T06:26:40.679Z,61.10
2018-06-30T06:29:07.641Z,62.40
2018-06-30T06:31:34.596Z,62.90
2018-06-30T06:34:03.122Z,62.00
2018-06-30T06:36:30.966Z,63.20
2018-06-30T06:38:58.540Z,61.70
2018-06-30T06:41:25.585Z,63.10
2018-06-30T06:43:52.551Z,63.70
2018-06-30T06:46:20.420Z,64.50
2018-06-30T06:48:47.365Z,64.40
2018-06-30T06:51:14.414Z,65.80
2018-06-30T06:53:41.413Z,64.50
2018-06-30T06:56:09.045Z,65.50
2018-06-30T06:58:36.674Z,65.50
2018-06-30T07:01:03.886Z,65.20
2018-06-30T07:03:33.198Z,65.50
2018-06-30T07:06:00.306Z,64.60
2018-06-30T07:08:27.177Z,64.70
2018-06-30T07:10:54.142Z,62.90
2018-06-30T07:13:21.439Z,63.50
2018-06-30T07:15:48.420Z,64.40
2018-06-30T07:18:15.367Z,63.30
2018-06-30T07:20:42.389Z,63.90
2018-06-30T07:23:09.653Z,64.30
2018-06-30T07:25:41.102Z,65.60
2018-06-30T07:28:08.043Z,66.70
2018-06-30T07:30:35.045Z,66.70
2018-06-30T07:33:02.141Z,67.50
2018-06-30T07:35:29.062Z,67.30
2018-06-30T07:37:56.045Z,67.20
2018-06-30T07:40:23.048Z,66.60
2018-06-30T07:42:51.198Z,66.90
2018-06-30T07:45:18.236Z,67.80
2018-06-30T07:47:45.325Z,68.00
2018-06-30T07:50:12.429Z,68.60
2018-06-30T07:52:39.342Z,68.00
2018-06-30T07:55:06.299Z,68.00
2018-06-30T07:57:33.236Z,67.90
2018-06-30T08:00:00.194Z,68.40
2018-06-30T08:02:27.135Z,69.40
2018-06-30T08:04:54.917Z,70.10
2018-06-30T08:07:21.951Z,70.00
2018-06-30T08:09:48.932Z,70.00
2018-06-30T08:12:16.142Z,68.60
2018-06-30T08:14:43.088Z,67.50
2018-06-30T08:17:10.442Z,67.10
2018-06-30T08:19:37.408Z,68.40
2018-06-30T08:22:04.376Z,68.70
2018-06-30T08:24:31.577Z,65.30
2018-06-30T08:26:58.528Z,59.50
2018-06-30T08:29:27.022Z,59.20
2018-06-30T08:31:54.005Z,57.00
2018-06-30T08:36:48.847Z,55.80
2018-06-30T08:39:15.782Z,55.00
2018-06-30T08:41:42.765Z,55.90
2018-06-30T08:44:09.719Z,54.80
2018-06-30T08:46:37.637Z,53.10
2018-06-30T08:51:31.532Z,51.60
2018-06-30T08:53:58.669Z,51.30
2018-06-30T08:56:25.646Z,50.90
2018-06-30T08:58:52.611Z,50.20
2018-06-30T09:01:19.581Z,49.70
2018-06-30T09:03:47.160Z,50.00
2018-06-30T09:06:14.174Z,48.90
2018-06-30T09:08:41.101Z,50.00
2018-06-30T09:11:08.164Z,50.00
2018-06-30T09:13:35.157Z,48.90
2018-06-30T09:16:02.097Z,48.80
2018-06-30T09:18:29.072Z,49.30
2018-06-30T09:20:56.825Z,49.00
2018-06-30T09:23:23.812Z,47.40
2018-06-30T09:25:50.757Z,49.50
2018-06-30T09:28:17.704Z,48.10
2018-06-30T09:30:45.381Z,47.10
2018-06-30T09:33:12.357Z,47.40
2018-06-30T09:35:39.524Z,48.00
2018-06-30T09:38:06.845Z,47.20
2018-06-30T09:40:33.909Z,48.00
2018-06-30T09:43:00.892Z,48.00
2018-06-30T09:45:27.842Z,49.00
2018-06-30T09:47:54.800Z,48.80
2018-06-30T09:50:22.396Z,49.60
2018-06-30T09:52:49.593Z,49.40
2018-06-30T09:55:16.562Z,48.90
2018-06-30T09:57:44.117Z,48.40
2018-06-30T10:00:15.669Z,47.90
2018-06-30T10:02:42.650Z,47.20
2018-06-30T10:05:09.792Z,47.40
2018-06-30T10:07:36.829Z,48.20
2018-06-30T10:10:03.978Z,45.90
2018-06-30T10:12:31.319Z,45.20
2018-06-30T10:14:58.508Z,45.40
2018-06-30T10:17:25.468Z,45.60
2018-06-30T10:19:52.489Z,46.10
2018-06-30T10:22:19.521Z,46.10
2018-06-30T10:24:46.588Z,46.20
2018-06-30T10:27:13.852Z,45.40
2018-06-30T10:29:40.805Z,43.60
2018-06-30T10:32:07.821Z,44.50
2018-06-30T10:34:34.773Z,45.40
2018-06-30T10:37:02.767Z,44.60
2018-06-30T10:39:29.877Z,44.70
2018-06-30T10:41:56.904Z,44.30
2018-06-30T10:44:23.929Z,44.10
2018-06-30T10:46:50.859Z,44.00
2018-06-30T10:49:17.801Z,42.20
2018-06-30T10:51:44.751Z,42.30
2018-06-30T10:54:12.047Z,40.90
2018-06-30T10:59:05.868Z,42.40
2018-06-30T11:01:33.379Z,41.90
2018-06-30T11:04:00.362Z,41.80
2018-06-30T11:06:27.336Z,43.80
2018-06-30T11:08:54.352Z,41.40
2018-06-30T11:11:21.378Z,41.10
2018-06-30T11:13:48.310Z,41.30
2018-06-30T11:16:15.246Z,41.10
2018-06-30T11:18:42.188Z,39.50
2018-06-30T11:21:09.180Z,40.60
2018-06-30T11:23:36.833Z,41.80
2018-06-30T11:26:03.795Z,41.80
2018-06-30T11:28:30.768Z,40.10
2018-06-30T11:30:58.374Z,40.80
2018-06-30T11:33:25.458Z,40.40
2018-06-30T11:35:52.413Z,40.70
2018-06-30T11:38:19.352Z,38.30
2018-06-30T11:40:47.006Z,37.50
2018-06-30T11:43:13.962Z,38.20
2018-06-30T11:45:40.909Z,37.80
2018-06-30T11:48:07.884Z,38.20
2018-06-30T11:50:34.881Z,36.80
2018-06-30T11:53:02.982Z,36.80
2018-06-30T11:55:29.923Z,36.80
2018-06-30T11:57:58.415Z,34.30
2018-06-30T12:00:26.485Z,34.70
2018-06-30T12:02:54.040Z,35.00
2018-06-30T12:05:21.896Z,34.80
2018-06-30T12:10:15.824Z,33.70
2018-06-30T12:12:42.764Z,35.50
2018-06-30T12:15:09.789Z,33.80
2018-06-30T12:17:36.895Z,34.30
2018-06-30T12:20:03.851Z,33.90
2018-06-30T12:22:30.839Z,34.10
2018-06-30T12:24:57.795Z,33.10
2018-06-30T12:27:25.003Z,34.40
2018-06-30T12:29:52.852Z,33.50
2018-06-30T12:32:19.871Z,33.00
2018-06-30T12:34:47.187Z,32.10
2018-06-30T12:37:15.153Z,32.60
2018-06-30T12:39:42.492Z,31.60
2018-06-30T12:42:09.462Z,32.00
2018-06-30T12:44:36.376Z,32.20
2018-06-30T12:47:03.392Z,31.80
2018-06-30T12:49:31.122Z,31.10
2018-06-30T12:51:58.134Z,32.50
2018-06-30T12:54:25.761Z,31.80
2018-06-30T12:56:52.913Z,32.20
2018-06-30T12:59:20.521Z,31.20
2018-06-30T13:01:47.493Z,30.90
2018-06-30T13:04:14.436Z,30.80
2018-06-30T13:06:41.402Z,31.00
2018-06-30T13:09:09.331Z,30.30
2018-06-30T13:11:36.269Z,29.90
2018-06-30T13:14:04.309Z,29.90
2018-06-30T13:16:31.269Z,30.40
2018-06-30T13:18:59.037Z,30.80
2018-06-30T13:21:26.561Z,29.80
2018-06-30T13:23:53.535Z,28.90
2018-06-30T13:26:20.447Z,29.60
2018-06-30T13:28:47.393Z,29.90
2018-06-30T13:31:14.380Z,28.40
2018-06-30T13:33:41.369Z,28.80
2018-06-30T13:36:08.755Z,29.10
2018-06-30T13:38:36.016Z,28.80
2018-06-30T13:41:03.351Z,27.30
2018-06-30T13:43:30.388Z,28.10
2018-06-30T13:45:57.310Z,29.20
2018-06-30T13:48:24.244Z,28.00
2018-06-30T13:50:51.199Z,28.70
2018-06-30T13:53:18.122Z,29.20
2018-06-30T13:55:45.332Z,27.80
2018-06-30T13:58:12.287Z,28.20
2018-06-30T14:00:39.857Z,28.10
2018-06-30T14:03:07.685Z,28.50
2018-06-30T14:05:34.631Z,27.90
2018-06-30T14:08:01.639Z,27.60
2018-06-30T14:10:28.591Z,28.40
2018-06-30T14:12:55.689Z,27.70
2018-06-30T14:15:23.045Z,28.40
2018-06-30T14:17:49.992Z,28.10
2018-06-30T14:20:16.913Z,28.10
2018-06-30T14:22:43.921Z,27.90
2018-06-30T14:25:10.936Z,28.50
2018-06-30T14:27:38.174Z,28.70
2018-06-30T14:30:06.521Z,28.80
2018-06-30T14:32:33.697Z,28.50
2018-06-30T14:35:00.898Z,28.40
2018-06-30T14:37:28.639Z,28.10
2018-06-30T14:39:55.664Z,27.90
2018-06-30T14:42:23.332Z,28.20
2018-06-30T14:44:50.289Z,28.50
2018-06-30T14:47:17.844Z,27.80
2018-06-30T14:49:46.326Z,28.00
2018-06-30T14:52:14.610Z,28.10
2018-06-30T14:54:41.556Z,28.60
2018-06-30T14:57:08.506Z,28.40
2018-06-30T14:59:35.635Z,28.30
2018-06-30T15:02:02.630Z,28.40
2018-06-30T15:04:29.676Z,28.20
2018-06-30T15:06:56.634Z,28.30
2018-06-30T15:09:24.236Z,27.60
2018-06-30T15:11:52.300Z,27.70
2018-06-30T15:14:19.259Z,27.90
2018-06-30T15:16:46.874Z,26.30
2018-06-30T15:19:14.263Z,26.10
2018-06-30T15:21:41.180Z,27.20
2018-06-30T15:24:08.679Z,26.00
2018-06-30T15:26:35.677Z,25.20
2018-06-30T15:29:03.298Z,25.60
2018-06-30T15:31:30.324Z,25.10
2018-06-30T15:33:57.971Z,26.10
2018-06-30T15:36:24.944Z,25.90
2018-06-30T15:38:52.346Z,24.70
2018-06-30T15:41:19.403Z,24.90
2018-06-30T15:43:47.008Z,24.60
2018-06-30T15:46:14.711Z,25.10
2018-06-30T15:48:42.053Z,25.20
2018-06-30T15:51:09.314Z,25.20
2018-06-30T15:53:37.276Z,24.90
2018-06-30T15:56:05.207Z,24.90
2018-06-30T15:58:32.169Z,24.70
2018-06-30T16:01:00.031Z,24.70
2018-06-30T16:03:27.776Z,25.10
2018-06-30T16:05:54.726Z,25.50
2018-06-30T16:08:21.923Z,25.20
2018-06-30T16:10:49.058Z,25.20
2018-06-30T16:13:16.509Z,25.60
2018-06-30T16:15:44.139Z,25.20
2018-06-30T16:18:11.060Z,25.20
2018-06-30T16:20:38.356Z,25.20
2018-06-30T16:23:05.972Z,26.00
2018-06-30T16:25:32.863Z,25.90
2018-06-30T16:27:59.831Z,26.10
2018-06-30T16:30:27.316Z,25.90
2018-06-30T16:32:54.763Z,26.10
2018-06-30T16:35:21.765Z,26.50
2018-06-30T16:37:49.325Z,26.80
2018-06-30T16:40:16.343Z,27.00
2018-06-30T16:42:43.886Z,27.10
2018-06-30T16:45:11.439Z,27.10
2018-06-30T16:47:38.484Z,27.80
2018-06-30T16:50:05.878Z,28.00
2018-06-30T16:52:32.900Z,28.70
2018-06-30T16:55:00.483Z,28.40
2018-06-30T16:57:28.612Z,28.60
2018-06-30T16:59:55.577Z,28.70
2018-06-30T17:02:22.533Z,28.60
2018-06-30T17:04:49.556Z,28.80
2018-06-30T17:07:16.767Z,28.40
2018-06-30T17:09:43.968Z,28.70
2018-06-30T17:14:37.862Z,29.40
2018-06-30T17:17:04.888Z,29.40
2018-06-30T17:19:32.080Z,29.20
2018-06-30T17:21:59.044Z,29.60
2018-06-30T17:24:26.649Z,29.30
2018-06-30T17:26:53.808Z,29.40
2018-06-30T17:29:20.787Z,29.60
2018-06-30T17:31:47.837Z,29.60
2018-06-30T17:34:15.050Z,29.90
2018-06-30T17:36:42.020Z,30.10
2018-06-30T17:39:10.117Z,30.40
2018-06-30T17:41:37.419Z,30.50
2018-06-30T17:44:04.670Z,30.50
2018-06-30T17:46:31.617Z,30.10
2018-06-30T17:48:59.606Z,30.70
2018-06-30T17:51:26.545Z,30.50
2018-06-30T17:53:53.504Z,30.20
2018-06-30T17:56:20.473Z,30.40
2018-06-30T17:58:47.445Z,31.00
2018-06-30T18:01:14.435Z,30.60
2018-06-30T18:06:08.761Z,30.60
2018-06-30T18:08:35.709Z,30.80
2018-06-30T18:11:03.476Z,31.20
2018-06-30T18:13:30.492Z,31.30
2018-06-30T18:15:57.527Z,31.30
2018-06-30T18:18:24.407Z,30.90
2018-06-30T18:20:51.544Z,31.30
2018-06-30T18:23:18.760Z,30.70
2018-06-30T18:25:46.296Z,31.10
2018-06-30T18:28:13.203Z,31.30
2018-06-30T18:30:40.230Z,31.70
2018-06-30T18:33:07.835Z,31.40
2018-06-30T18:35:35.034Z,31.10
2018-06-30T18:38:02.005Z,31.40
2018-06-30T18:40:29.492Z,31.90
2018-06-30T18:42:56.508Z,31.90
2018-06-30T18:45:23.483Z,32.40
2018-06-30T18:47:50.420Z,32.40
2018-06-30T18:50:17.379Z,32.80
2018-06-30T18:52:44.376Z,32.50
2018-06-30T18:55:11.361Z,32.80
2018-06-30T18:57:38.408Z,33.10
2018-06-30T19:02:32.241Z,34.20
2018-06-30T19:04:59.191Z,34.80
2018-06-30T19:07:26.171Z,33.80
2018-06-30T19:09:53.131Z,34.30
2018-06-30T19:12:21.164Z,34.40
2018-06-30T19:14:49.100Z,34.90
2018-06-30T19:17:16.108Z,35.90
2018-06-30T19:19:43.066Z,35.00
2018-06-30T19:22:10.012Z,35.50
2018-06-30T19:24:36.989Z,35.60
2018-06-30T19:27:03.997Z,35.90
2018-06-30T19:29:31.788Z,34.90
2018-06-30T19:31:58.810Z,35.10
2018-06-30T19:34:25.748Z,35.70
2018-06-30T19:36:52.826Z,35.10
2018-06-30T19:39:19.739Z,34.60
2018-06-30T19:41:46.729Z,34.80
2018-06-30T19:44:13.700Z,34.50
2018-06-30T19:46:40.645Z,35.00
2018-06-30T19:49:07.613Z,34.80
2018-06-30T19:51:34.798Z,34.90
2018-06-30T19:54:01.763Z,35.90
2018-06-30T19:56:28.718Z,35.00
2018-06-30T19:58:55.841Z,34.80
2018-06-30T20:01:22.757Z,34.90
2018-06-30T20:03:49.712Z,35.30
2018-06-30T20:06:16.663Z,35.40
2018-06-30T20:08:43.594Z,35.50
2018-06-30T20:11:11.071Z,35.50
2018-06-30T20:13:39.048Z,35.70
2018-06-30T20:16:06.088Z,35.60
2018-06-30T20:18:33.105Z,35.70
2018-06-30T20:21:00.265Z,35.90
2018-06-30T20:25:54.580Z,35.80
2018-06-30T20:28:21.560Z,36.30
2018-06-30T20:30:48.479Z,35.80
2018-06-30T20:33:15.425Z,36.30
2018-06-30T20:35:42.395Z,36.20
2018-06-30T20:38:10.602Z,36.50
2018-06-30T20:40:37.819Z,36.20
2018-06-30T20:43:05.415Z,36.50
2018-06-30T20:45:33.005Z,36.40
2018-06-30T20:47:59.957Z,36.60
2018-06-30T20:50:26.909Z,36.50
2018-06-30T20:52:53.870Z,36.40
2018-06-30T20:55:20.888Z,36.80
2018-06-30T20:57:47.833Z,37.20
2018-06-30T21:00:15.996Z,37.20
2018-06-30T21:02:43.186Z,37.20
2018-06-30T21:05:10.201Z,37.10
2018-06-30T21:07:37.747Z,36.90
2018-06-30T21:10:04.844Z,36.70
2018-06-30T21:12:32.312Z,37.00
2018-06-30T21:14:59.525Z,37.00
2018-06-30T21:17:26.491Z,37.10
2018-06-30T21:19:53.525Z,36.80
2018-06-30T21:22:21.019Z,37.00
2018-06-30T21:24:48.694Z,37.30
2018-06-30T21:27:15.628Z,37.00
2018-06-30T21:29:42.643Z,37.10
2018-06-30T21:32:10.064Z,37.30
2018-06-30T21:37:04.740Z,37.40
2018-06-30T21:39:31.710Z,37.60
2018-06-30T21:41:58.671Z,37.50
2018-06-30T21:44:26.199Z,37.50
2018-06-30T21:46:53.216Z,37.80
2018-06-30T21:49:20.166Z,37.80
2018-06-30T21:51:47.411Z,38.00
2018-06-30T21:54:14.954Z,38.30
2018-06-30T21:56:41.919Z,38.40
2018-06-30T21:59:09.113Z,38.40
2018-06-30T22:01:36.100Z,38.40
2018-06-30T22:04:03.109Z,38.50
2018-06-30T22:06:30.308Z,38.60
2018-06-30T22:08:57.695Z,38.70
2018-06-30T22:11:25.307Z,38.80
2018-06-30T22:13:52.161Z,39.30
2018-06-30T22:16:19.248Z,39.00
2018-06-30T22:18:46.201Z,38.80
2018-06-30T22:21:13.228Z,39.50
2018-06-30T22:23:40.152Z,39.10
2018-06-30T22:26:07.727Z,39.10
2018-06-30T22:28:41.576Z,38.90
2018-06-30T22:31:08.572Z,39.40
2018-06-30T22:33:35.522Z,39.20
2018-06-30T22:36:03.139Z,39.80
2018-06-30T22:38:30.360Z,39.50
2018-06-30T22:40:57.508Z,39.90
2018-06-30T22:43:24.857Z,39.80
2018-06-30T22:45:51.979Z,40.10
2018-06-30T22:48:19.034Z,40.10
2018-06-30T22:50:46.595Z,40.20
2018-06-30T22:53:14.166Z,40.10
2018-06-30T22:55:41.130Z,40.40
2018-06-30T22:58:09.735Z,40.40
2018-06-30T23:00:36.705Z,40.70
2018-06-30T23:03:07.564Z,41.00
2018-06-30T23:05:34.520Z,40.70
2018-06-30T23:08:01.774Z,40.80
2018-06-30T23:10:28.755Z,40.80
2018-06-30T23:12:55.669Z,41.00
2018-06-30T23:15:23.393Z,41.20
2018-06-30T23:17:50.323Z,41.40
2018-06-30T23:20:18.340Z,41.10
2018-06-30T23:25:12.168Z,41.30
2018-06-30T23:27:39.159Z,42.00
2018-06-30T23:30:12.830Z,41.40
2018-06-30T23:32:40.035Z,41.50
2018-06-30T23:35:06.973Z,41.50
2018-06-30T23:37:34.470Z,41.30
2018-06-30T23:40:02.043Z,41.40
2018-06-30T23:42:29.043Z,41.60
2018-06-30T23:44:55.996Z,41.80
2018-06-30T23:47:22.920Z,42.00
2018-06-30T23:49:50.104Z,42.00
2018-06-30T23:52:17.086Z,42.10
2018-06-30T23:54:43.982Z,42.30
2018-06-30T23:57:10.942Z,42.70
2018-06-30T23:59:37.870Z,42.90
